Time;durP1;ratioP1;P1;durP2;ratioP2;P2;SDS_P1;SDS_P2;PMS_P1;PMS_P2;Temp;Humidity;BMP_temperature;BMP_pressure;BME280_temperature;BME280_humidity;BME280_pressure;Samples;Min_cycle;Max_cycle;Signal;HPM_P1;HPM_P2
2022/05/28 00:01:43;;;;;;;5.32;1.63;;;;;;;22.67;48.02;98011.97;4849798;28;20125;-63
2022/05/28 00:04:09;;;;;;;3.97;1.48;;;;;;;22.75;47.47;98010.75;4821349;28;20031;-58
2022/05/28 00:06:35;;;;;;;4.93;1.60;;;;;;;22.59;48.84;98004.38;4814230;28;20556;-65
2022/05/28 00:09:01;;;;;;;4.53;1.50;;;;;;;22.59;46.53;97996.44;4850326;28;20038;-62
2022/05/28 00:11:34;;;;;;;3.83;1.33;;;;;;;22.71;45.84;97991.88;4834206;28;20041;-59
2022/05/28 00:14:00;;;;;;;3.53;1.50;;;;;;;22.74;45.82;97991.38;4782230;28;21669;-59
2022/05/28 00:16:25;;;;;;;3.17;1.30;;;;;;;22.75;45.55;98000.16;4823013;28;20026;-61
2022/05/28 00:18:54;;;;;;;4.22;1.40;;;;;;;22.71;46.44;97978.63;4831343;28;20653;-60
2022/05/28 00:21:25;;;;;;;5.70;1.40;;;;;;;22.81;44.27;97991.25;4855448;28;20035;-63
2022/05/28 00:23:51;;;;;;;3.20;1.20;;;;;;;22.85;44.78;97997.66;4860935;28;20561;-62
2022/05/28 00:26:17;;;;;;;3.10;1.10;;;;;;;22.77;44.12;97977.66;4770114;28;20900;-63
2022/05/28 00:28:43;;;;;;;3.67;1.33;;;;;;;22.90;43.31;97968.59;4820913;28;20049;-62
2022/05/28 00:31:08;;;;;;;2.78;1.02;;;;;;;22.96;42.25;97977.44;4846389;28;20050;-61
2022/05/28 00:33:34;;;;;;;3.08;1.05;;;;;;;22.99;42.74;97984.94;4819869;28;20094;-59
2022/05/28 00:36:00;;;;;;;3.85;1.35;;;;;;;22.89;43.52;97974.16;4804106;28;20328;-62
2022/05/28 00:38:27;;;;;;;3.10;1.17;;;;;;;22.80;42.46;97971.91;4844187;28;25013;-58
2022/05/28 00:40:55;;;;;;;4.80;1.10;;;;;;;22.86;42.88;97977.28;4839979;28;20062;-59
2022/05/28 00:43:20;;;;;;;3.78;1.17;;;;;;;22.86;41.75;97974.66;4763304;28;20039;-61
2022/05/28 00:45:47;;;;;;;3.75;1.00;;;;;;;22.55;41.96;97937.81;4842830;28;20047;-62
2022/05/28 00:48:17;;;;;;;3.55;1.08;;;;;;;22.83;41.93;97952.88;4847491;28;20039;-62
2022/05/28 00:50:43;;;;;;;3.40;1.30;;;;;;;22.92;41.03;97976.31;4802065;28;20098;-58
2022/05/28 00:53:09;;;;;;;2.70;0.90;;;;;;;22.92;41.12;97973.69;4802355;28;20046;-62
2022/05/28 00:55:35;;;;;;;4.13;1.00;;;;;;;22.80;40.75;97942.75;4848419;28;20043;-62
2022/05/28 00:58:06;;;;;;;4.57;1.10;;;;;;;22.83;40.63;97933.50;4826627;28;20569;-59
2022/05/28 01:00:33;;;;;;;2.90;0.90;;;;;;;22.91;40.37;97951.69;4770910;28;20931;-61
2022/05/28 01:03:44;;;;;;;2.22;0.90;;;;;;;22.96;40.28;97953.59;4823303;28;20163;-59
2022/05/28 01:06:21;;;;;;;2.53;0.90;;;;;;;22.95;39.33;97946.69;4858423;28;20047;-61
2022/05/28 01:08:52;;;;;;;3.65;1.08;;;;;;;23.08;39.05;97933.13;4843375;28;20049;-61
2022/05/28 01:11:36;;;;;;;2.35;0.80;;;;;;;22.97;39.17;97940.09;4771233;28;20039;-60
2022/05/28 01:14:14;;;;;;;4.47;1.00;;;;;;;22.98;39.48;97931.13;4824485;28;20804;-62
2022/05/28 01:17:13;;;;;;;3.10;1.00;;;;;;;22.98;39.44;97936.41;4800687;28;20023;-61
2022/05/28 01:19:51;;;;;;;3.58;0.80;;;;;;;22.92;38.39;97896.81;4775465;28;20628;-59
2022/05/28 01:22:32;;;;;;;2.28;0.82;;;;;;;22.99;38.54;97930.06;4831986;28;20039;-63
2022/05/28 01:25:10;;;;;;;2.35;0.80;;;;;;;22.99;38.84;97922.09;4846534;28;20050;-62
2022/05/28 01:27:41;;;;;;;3.47;0.97;;;;;;;22.96;37.64;97898.75;4854062;28;20031;-62
2022/05/28 01:30:09;;;;;;;2.30;0.70;;;;;;;23.01;38.39;97917.34;4763367;28;20544;-60
2022/05/28 01:32:35;;;;;;;1.88;0.73;;;;;;;22.83;38.25;97876.03;4828460;28;20719;-62
2022/05/28 01:35:05;;;;;;;3.83;1.13;;;;;;;23.13;38.03;97916.50;4851347;28;20888;-63
2022/05/28 01:37:31;;;;;;;2.58;0.80;;;;;;;22.93;37.77;97875.38;4823355;28;20042;-62
2022/05/28 01:39:57;;;;;;;1.92;0.65;;;;;;;22.96;37.08;97869.59;4793929;28;20462;-63
2022/05/28 01:42:23;;;;;;;2.42;0.90;;;;;;;23.05;39.04;97890.41;4842234;28;20512;-62
2022/05/28 01:44:49;;;;;;;3.05;0.70;;;;;;;23.06;38.13;97899.97;4838095;28;20027;-63
2022/05/28 01:47:15;;;;;;;3.45;0.70;;;;;;;22.96;39.17;97898.75;4780114;28;20062;-61
2022/05/28 01:49:41;;;;;;;2.50;0.82;;;;;;;22.95;37.87;97885.72;4813776;28;21007;-62
2022/05/28 01:52:08;;;;;;;3.55;0.80;;;;;;;23.05;37.42;97879.78;4850178;28;20133;-64
2022/05/28 01:54:38;;;;;;;5.03;0.80;;;;;;;23.07;37.49;97881.16;4816374;28;20510;-61
2022/05/28 01:57:04;;;;;;;2.00;0.70;;;;;;;23.00;37.68;97881.31;4796570;28;20066;-64
2022/05/28 01:59:33;;;;;;;2.08;0.70;;;;;;;22.93;38.96;97869.28;4845870;28;20363;-61
2022/05/28 02:02:00;;;;;;;1.80;0.67;;;;;;;22.87;38.67;97876.31;4854299;28;20042;-63
2022/05/28 02:04:26;;;;;;;1.52;0.70;;;;;;;22.78;39.43;97865.34;4782728;28;20140;-60
2022/05/28 02:06:52;;;;;;;2.30;0.70;;;;;;;22.72;39.74;97858.34;4833101;28;20030;-61
2022/05/28 02:09:23;;;;;;;2.13;0.70;;;;;;;22.51;38.14;97819.34;4834161;28;20149;-63
2022/05/28 02:12:11;;;;;;;1.48;0.60;;;;;;;22.75;38.94;97855.22;4826729;28;20429;-60
2022/05/28 02:14:50;;;;;;;3.83;0.85;;;;;;;22.82;38.54;97847.91;4774695;28;20097;-60
2022/05/28 02:17:50;;;;;;;2.30;0.70;;;;;;;22.81;38.88;97866.69;4827466;28;20950;-60
2022/05/28 02:20:18;;;;;;;3.47;0.70;;;;;;;22.72;39.11;97849.59;4846370;28;20138;-62
2022/05/28 02:23:06;;;;;;;4.10;0.90;;;;;;;22.61;40.33;97851.28;4828467;28;20023;-62
2022/05/28 02:25:37;;;;;;;1.90;0.60;;;;;;;22.64;39.63;97838.34;4817944;28;20030;-59
2022/05/28 02:28:04;;;;;;;3.13;0.75;;;;;;;22.62;39.08;97832.50;4773938;28;20046;-63
2022/05/28 02:30:31;;;;;;;2.03;0.70;;;;;;;22.59;38.74;97834.81;4839256;28;20093;-63
2022/05/28 02:33:06;;;;;;;4.40;0.95;;;;;;;22.66;39.10;97840.78;4773247;28;20490;-60
2022/05/28 02:35:32;;;;;;;1.40;0.60;;;;;;;22.69;38.43;97831.53;4806676;28;20035;-61
2022/05/28 02:37:57;;;;;;;3.10;0.77;;;;;;;22.69;38.21;97829.69;4841570;28;20062;-63
2022/05/28 02:40:23;;;;;;;1.83;0.70;;;;;;;22.72;37.82;97836.34;4821573;28;20113;-59
2022/05/28 02:42:48;;;;;;;2.78;0.80;;;;;;;22.72;38.83;97839.00;4773030;28;20042;-64
2022/05/28 02:45:14;;;;;;;2.22;0.75;;;;;;;22.65;38.44;97817.94;4836491;28;20109;-63
2022/05/28 02:47:39;;;;;;;2.65;0.80;;;;;;;22.69;38.56;97827.06;4836217;28;20030;-62
2022/05/28 02:50:05;;;;;;;2.20;0.70;;;;;;;22.59;39.18;97813.63;4772281;28;20038;-62
2022/05/28 02:52:31;;;;;;;2.38;0.68;;;;;;;22.54;39.01;97818.84;4818389;28;20039;-62
2022/05/28 02:54:56;;;;;;;2.00;0.82;;;;;;;22.63;38.59;97814.75;4839236;28;20038;-60
2022/05/28 02:57:22;;;;;;;2.17;0.70;;;;;;;22.54;38.30;97830.25;4806345;28;20035;-63
2022/05/28 02:59:47;;;;;;;1.73;0.63;;;;;;;22.63;38.22;97807.63;4792686;28;20042;-64
2022/05/28 03:02:13;;;;;;;2.17;0.60;;;;;;;22.40;37.74;97774.16;4833145;28;20085;-62
2022/05/28 03:04:38;;;;;;;2.65;1.02;;;;;;;22.27;38.52;97755.97;4834026;28;20422;-60
2022/05/28 03:07:04;;;;;;;1.65;0.70;;;;;;;22.44;39.14;97804.41;4754505;28;20411;-61
2022/05/28 03:09:30;;;;;;;2.58;0.70;;;;;;;22.45;38.81;97811.31;4833966;28;20043;-63
2022/05/28 03:11:55;;;;;;;2.35;0.80;;;;;;;22.30;38.56;97768.69;4769776;28;20039;-61
2022/05/28 03:14:20;;;;;;;2.42;0.60;;;;;;;22.58;37.97;97796.94;4804996;28;20027;-63
2022/05/28 03:16:46;;;;;;;2.28;0.70;;;;;;;22.45;38.36;97784.00;4837013;28;20106;-63
2022/05/28 03:19:12;;;;;;;2.38;0.60;;;;;;;22.47;38.71;97797.84;4783039;28;20402;-59
2022/05/28 03:21:39;;;;;;;2.70;0.63;;;;;;;22.40;38.61;97795.34;4804172;28;20838;-63
2022/05/28 03:24:07;;;;;;;1.85;0.57;;;;;;;22.49;38.07;97803.69;4824324;28;20387;-63
2022/05/28 03:26:33;;;;;;;2.50;0.60;;;;;;;22.44;37.83;97785.88;4816798;28;20043;-57
2022/05/28 03:28:58;;;;;;;1.48;0.50;;;;;;;22.50;38.38;97791.25;4771100;28;21213;-63
2022/05/28 03:31:25;;;;;;;2.00;0.70;;;;;;;22.41;38.93;97793.50;4820323;28;20627;-64
2022/05/28 03:33:51;;;;;;;1.52;0.63;;;;;;;22.21;39.05;97778.06;4826316;28;20027;-62
2022/05/28 03:36:17;;;;;;;1.90;0.85;;;;;;;22.42;38.38;97808.34;4776112;28;20740;-58
2022/05/28 03:38:42;;;;;;;1.60;0.60;;;;;;;22.23;38.66;97758.25;4832493;28;20030;-61
2022/05/28 03:41:09;;;;;;;2.67;0.60;;;;;;;22.40;38.51;97799.84;4838494;28;20051;-61
2022/05/28 03:43:34;;;;;;;2.22;0.50;;;;;;;22.08;38.91;97758.00;4810539;28;20062;-59
2022/05/28 03:46:00;;;;;;;1.70;0.57;;;;;;;22.20;38.91;97798.44;4775287;28;20482;-63
2022/05/28 03:48:26;;;;;;;1.83;0.60;;;;;;;22.21;38.68;97786.78;4818031;28;20217;-63
2022/05/28 03:50:51;;;;;;;1.85;0.70;;;;;;;22.29;38.56;97784.81;4762437;28;20497;-60
2022/05/28 03:53:17;;;;;;;2.88;0.77;;;;;;;22.28;38.59;97784.03;4828430;28;20049;-64
2022/05/28 03:55:43;;;;;;;2.22;0.70;;;;;;;22.30;38.70;97805.75;4839406;28;20517;-62
2022/05/28 03:58:08;;;;;;;2.70;0.63;;;;;;;22.23;39.24;97805.91;4797724;28;20027;-59
2022/05/28 04:00:34;;;;;;;1.30;0.50;;;;;;;22.24;39.39;97798.75;4777099;28;20567;-64
2022/05/28 04:03:00;;;;;;;1.33;0.52;;;;;;;22.28;38.50;97802.56;4833020;28;21626;-64
2022/05/28 04:05:26;;;;;;;1.90;0.60;;;;;;;22.25;38.85;97801.16;4816300;28;20023;-59
2022/05/28 04:07:51;;;;;;;1.70;0.60;;;;;;;22.25;38.39;97806.47;4758906;28;22574;-62
2022/05/28 04:10:17;;;;;;;1.67;0.57;;;;;;;22.29;38.04;97796.22;4832882;28;26102;-61
2022/05/28 04:12:43;;;;;;;1.48;0.70;;;;;;;22.33;38.40;97799.19;4828384;28;20070;-63
2022/05/28 04:15:10;;;;;;;3.25;0.70;;;;;;;22.16;38.20;97776.13;4753876;28;20681;-63
2022/05/28 04:17:35;;;;;;;1.83;0.60;;;;;;;22.33;38.32;97801.84;4842970;28;20038;-63
2022/05/28 04:20:02;;;;;;;2.50;0.70;;;;;;;22.25;39.17;97795.88;4774140;28;20042;-61
2022/05/28 04:22:27;;;;;;;1.45;0.50;;;;;;;22.22;39.19;97806.13;4790899;28;20031;-65
2022/05/28 04:24:53;;;;;;;2.83;0.80;;;;;;;21.94;39.26;97778.69;4838630;28;20121;-63
2022/05/28 04:27:18;;;;;;;1.85;0.60;;;;;;;22.17;38.50;97811.34;4823529;28;20481;-61
2022/05/28 04:29:44;;;;;;;1.80;0.65;;;;;;;22.16;38.85;97817.66;4772624;28;20992;-61
2022/05/28 04:32:09;;;;;;;1.70;0.60;;;;;;;22.05;39.32;97808.75;4833720;28;20037;-62
2022/05/28 04:34:34;;;;;;;0.73;0.40;;;;;;;22.09;39.03;97812.53;4840752;28;20050;-63
2022/05/28 04:37:00;;;;;;;1.75;0.60;;;;;;;22.01;38.58;97778.50;4777801;28;21187;-60
2022/05/28 04:39:25;;;;;;;1.75;0.60;;;;;;;22.21;38.26;97809.81;4830242;28;20130;-64
2022/05/28 04:41:51;;;;;;;1.58;0.50;;;;;;;22.26;38.02;97804.66;4841368;28;20062;-63
2022/05/28 04:44:16;;;;;;;2.75;0.60;;;;;;;22.19;38.77;97809.25;4796193;28;20039;-61
2022/05/28 04:46:41;;;;;;;1.48;0.50;;;;;;;22.14;38.52;97798.56;4797398;28;20574;-64
2022/05/28 04:49:07;;;;;;;3.20;0.60;;;;;;;21.99;38.21;97785.88;4834743;28;20833;-62
2022/05/28 04:51:32;;;;;;;1.30;0.43;;;;;;;22.16;37.73;97805.25;4812991;28;20034;-62
2022/05/28 04:53:58;;;;;;;0.80;0.35;;;;;;;22.25;37.49;97797.69;4754437;28;20576;-63
2022/05/28 04:56:23;;;;;;;1.90;0.50;;;;;;;22.28;37.34;97797.25;4822879;28;20711;-62
2022/05/28 04:58:49;;;;;;;0.85;0.40;;;;;;;22.21;37.65;97801.88;4752794;28;20748;-63
2022/05/28 05:01:17;;;;;;;1.20;0.40;;;;;;;22.16;37.59;97799.97;4825497;28;20117;-63
2022/05/28 05:03:42;;;;;;;2.08;0.40;;;;;;;22.27;37.21;97801.75;4838417;28;20027;-64
2022/05/28 05:06:08;;;;;;;1.73;0.60;;;;;;;22.32;37.52;97808.19;4785065;28;20851;-60
2022/05/28 05:08:34;;;;;;;1.83;0.52;;;;;;;22.35;37.25;97803.19;4812330;28;20569;-64
2022/05/28 05:10:59;;;;;;;1.17;0.47;;;;;;;22.30;37.78;97803.13;4833894;28;20038;-64
2022/05/28 05:13:25;;;;;;;0.88;0.47;;;;;;;22.34;37.62;97820.16;4790545;28;20469;-59
2022/05/28 05:15:50;;;;;;;2.00;0.60;;;;;;;22.43;37.08;97796.69;4776153;28;20035;-64
2022/05/28 05:18:16;;;;;;;2.03;0.60;;;;;;;22.45;37.02;97813.97;4833831;28;20038;-61
2022/05/28 05:20:41;;;;;;;1.92;0.60;;;;;;;22.59;36.71;97803.84;4840513;28;20023;-62
2022/05/28 05:23:07;;;;;;;1.65;0.43;;;;;;;22.57;36.43;97805.94;4759920;28;20041;-59
2022/05/28 05:25:33;;;;;;;1.77;0.60;;;;;;;22.43;37.08;97788.75;4824651;28;25540;-64
2022/05/28 05:27:59;;;;;;;1.35;0.55;;;;;;;22.44;37.61;97811.56;4847206;28;20053;-61
2022/05/28 05:30:25;;;;;;;1.88;0.55;;;;;;;22.36;37.52;97810.13;4789303;28;20031;-61
2022/05/28 05:32:50;;;;;;;1.55;0.50;;;;;;;22.15;37.28;97771.88;4800726;28;20145;-62
2022/05/28 05:35:16;;;;;;;1.15;0.50;;;;;;;22.29;37.24;97793.59;4838598;28;20284;-63
2022/05/28 05:37:41;;;;;;;1.90;0.50;;;;;;;22.42;37.21;97806.50;4827849;28;20118;-58
2022/05/28 05:40:08;;;;;;;1.52;0.60;;;;;;;22.44;36.76;97800.97;4761260;28;20072;-63
2022/05/28 05:42:33;;;;;;;3.67;1.08;;;;;;;22.43;37.18;97797.53;4827537;28;20902;-61
2022/05/28 05:44:59;;;;;;;2.47;0.80;;;;;;;22.63;35.63;97797.03;4835448;28;20030;-62
2022/05/28 05:47:24;;;;;;;2.38;0.77;;;;;;;22.53;35.62;97775.69;4776802;28;20568;-60
2022/05/28 05:49:50;;;;;;;1.98;0.50;;;;;;;22.76;35.19;97793.25;4799461;28;20439;-61
2022/05/28 05:52:16;;;;;;;1.58;0.43;;;;;;;22.49;35.84;97763.13;4838281;28;20043;-60
2022/05/28 05:54:42;;;;;;;3.78;0.52;;;;;;;22.74;35.28;97797.94;4745368;28;20200;-62
2022/05/28 05:57:08;;;;;;;1.77;0.52;;;;;;;22.68;35.78;97788.34;4840363;28;20339;-66
2022/05/28 05:59:35;;;;;;;1.60;0.60;;;;;;;22.68;35.30;97791.00;4794103;28;20042;-60
2022/05/28 06:02:00;;;;;;;1.90;0.68;;;;;;;22.67;35.84;97784.09;4763137;28;20388;-62
2022/05/28 06:04:26;;;;;;;1.95;0.50;;;;;;;22.64;35.37;97790.66;4831497;28;20038;-62
2022/05/28 06:06:51;;;;;;;1.48;0.60;;;;;;;22.75;35.17;97777.56;4844651;28;20101;-62
2022/05/28 06:09:17;;;;;;;3.85;0.52;;;;;;;22.77;34.89;97783.44;4751587;28;20153;-64
2022/05/28 06:11:42;;;;;;;3.17;0.70;;;;;;;22.74;34.69;97774.09;4845555;28;20039;-62
2022/05/28 06:14:08;;;;;;;2.20;0.50;;;;;;;22.70;35.91;97780.94;4800518;28;20035;-59
2022/05/28 06:16:33;;;;;;;2.72;0.50;;;;;;;22.67;35.64;97783.28;4789846;28;20099;-64
2022/05/28 06:18:59;;;;;;;2.70;0.70;;;;;;;22.36;35.69;97730.69;4823186;28;20543;-60
2022/05/28 06:21:25;;;;;;;1.70;0.63;;;;;;;22.67;35.95;97764.72;4833119;28;20174;-61
2022/05/28 06:23:51;;;;;;;1.70;0.60;;;;;;;22.71;35.51;97776.44;4759622;28;20054;-61
2022/05/28 06:26:16;;;;;;;2.05;0.57;;;;;;;22.59;35.78;97744.75;4827672;28;20115;-62
2022/05/28 06:28:41;;;;;;;1.50;0.50;;;;;;;22.75;35.71;97774.94;4842616;28;20070;-62
2022/05/28 06:31:09;;;;;;;1.73;0.50;;;;;;;22.63;36.50;97778.47;4779933;28;20376;-59
2022/05/28 06:33:36;;;;;;;2.65;0.63;;;;;;;22.62;36.77;97771.56;4797522;28;20642;-61
2022/05/28 06:36:03;;;;;;;1.55;0.50;;;;;;;22.60;37.64;97771.00;4840342;28;20516;-63
2022/05/28 06:38:29;;;;;;;1.33;0.47;;;;;;;22.59;36.89;97771.25;4823236;28;20061;-58
2022/05/28 06:40:55;;;;;;;1.50;0.50;;;;;;;22.61;37.09;97767.31;4764981;28;20353;-63
2022/05/28 06:43:21;;;;;;;1.70;0.50;;;;;;;22.57;37.68;97774.13;4844041;28;20908;-62
2022/05/28 06:45:47;;;;;;;1.88;0.55;;;;;;;22.49;37.96;97765.78;4824589;28;20038;-62
2022/05/28 06:48:13;;;;;;;1.13;0.40;;;;;;;22.42;38.22;97758.81;4785332;28;21706;-59
2022/05/28 06:53:24;;;;;;;2.42;0.70;;;;;;;22.53;37.56;97761.63;4844004;28;25185;-61
2022/05/28 06:55:49;;;;;;;1.30;0.60;;;;;;;22.52;37.83;97760.81;4830353;28;20656;-58
2022/05/28 06:58:15;;;;;;;3.25;0.90;;;;;;;22.44;38.00;97764.69;4769998;28;20062;-60
2022/05/28 07:00:40;;;;;;;5.65;0.85;;;;;;;22.40;38.85;97758.25;4838248;28;20616;-63
2022/05/28 07:03:10;;;;;;;2.75;0.70;;;;;;;22.22;39.02;97716.13;4818839;28;20295;-62
2022/05/28 07:05:36;;;;;;;3.88;1.52;;;;;;;22.27;39.26;97755.97;4792250;28;20125;-59
2022/05/28 07:08:01;;;;;;;5.28;2.60;;;;;;;22.25;38.33;97750.88;4808988;28;25626;-64
2022/05/28 07:10:27;;;;;;;4.18;1.25;;;;;;;22.45;38.26;97754.88;4836588;28;20074;-63
2022/05/28 07:12:53;;;;;;;7.43;2.78;;;;;;;22.36;38.39;97753.69;4735988;28;20031;-62
2022/05/28 07:15:18;;;;;;;5.95;2.40;;;;;;;22.41;38.29;97756.41;4834372;28;20046;-63
2022/05/28 07:17:44;;;;;;;6.63;1.90;;;;;;;22.38;38.62;97748.94;4750313;28;20046;-62
2022/05/28 07:20:10;;;;;;;2.22;0.85;;;;;;;22.36;38.61;97743.91;4831462;28;20049;-63
2022/05/28 07:22:36;;;;;;;2.70;0.90;;;;;;;22.43;37.87;97739.25;4753475;28;20035;-63
2022/05/28 07:25:02;;;;;;;2.72;0.80;;;;;;;22.35;39.66;97739.66;4751207;28;20658;-61
2022/05/28 07:27:27;;;;;;;5.82;1.20;;;;;;;22.09;39.28;97714.59;4756465;28;20231;-63
2022/05/28 07:29:57;;;;;;;6.30;2.95;;;;;;;22.41;38.66;97741.31;4745670;28;20038;-60
2022/05/28 07:32:29;;;;;;;;;;;;;;;22.47;38.32;97739.56;4755301;28;25568;-63
2022/05/28 07:34:55;;;;;;;2.75;0.95;;;;;;;22.46;37.70;97733.44;4751740;28;20021;-64
2022/05/28 07:37:21;;;;;;;3.60;0.73;;;;;;;22.35;38.17;97710.53;4757474;28;20042;-64
2022/05/28 07:39:46;;;;;;;1.90;0.60;;;;;;;22.71;38.18;97720.78;4753939;28;20255;-64
2022/05/28 07:42:11;;;;;;;1.70;0.63;;;;;;;23.44;37.11;97732.06;4748318;28;20840;-63
2022/05/28 07:44:37;;;;;;;2.28;0.90;;;;;;;23.83;35.80;97726.63;4736637;28;20548;-62
2022/05/28 07:47:07;;;;;;;3.55;0.70;;;;;;;24.20;34.18;97701.94;4753793;28;20170;-62
2022/05/28 07:49:34;;;;;;;1.88;0.60;;;;;;;24.63;32.77;97691.34;4752746;28;20469;-63
2022/05/28 07:52:00;;;;;;;2.22;0.60;;;;;;;24.91;33.04;97732.69;4755414;28;20038;-63
2022/05/28 07:54:25;;;;;;;1.15;0.35;;;;;;;25.06;32.04;97708.81;4750998;28;25679;-66
2022/05/28 07:56:51;;;;;;;1.30;0.50;;;;;;;25.46;30.91;97723.34;4755759;28;20749;-61
2022/05/28 07:59:16;;;;;;;1.77;0.50;;;;;;;25.68;31.43;97719.63;4766658;28;20038;-63
2022/05/28 08:01:42;;;;;;;2.70;0.50;;;;;;;25.59;31.70;97716.69;4756729;28;20144;-62
2022/05/28 08:04:09;;;;;;;1.77;0.57;;;;;;;25.88;31.51;97678.91;4752012;28;20283;-62
2022/05/28 08:06:34;;;;;;;3.30;1.05;;;;;;;26.25;31.30;97709.81;4745417;28;20393;-64
2022/05/28 08:09:00;;;;;;;3.30;0.90;;;;;;;26.37;30.83;97722.84;4751310;28;21576;-61
2022/05/28 08:11:25;;;;;;;4.88;0.75;;;;;;;26.33;30.98;97695.94;4715767;28;20177;-61
2022/05/28 08:13:52;;;;;;;3.30;1.00;;;;;;;26.83;31.54;97715.56;4723120;28;20825;-63
2022/05/28 08:16:18;;;;;;;1.67;0.60;;;;;;;26.87;30.47;97717.66;4716725;28;20160;-65
2022/05/28 08:18:43;;;;;;;3.92;1.55;;;;;;;27.02;30.07;97713.09;4732553;28;20039;-64
2022/05/28 08:23:54;;;;;;;1.88;0.60;;;;;;;27.44;30.61;97694.22;4720139;28;25753;-64
2022/05/28 08:26:20;;;;;;;3.05;0.60;;;;;;;27.76;30.11;97702.56;4739355;28;20082;-64
2022/05/28 08:28:47;;;;;;;2.30;0.60;;;;;;;27.80;28.53;97706.25;4722240;28;20053;-63
2022/05/28 08:31:13;;;;;;;2.03;0.60;;;;;;;27.77;28.83;97684.66;4727535;28;20038;-62
2022/05/28 08:33:38;;;;;;;1.58;0.57;;;;;;;27.89;28.23;97708.31;4718817;28;21774;-66
2022/05/28 08:36:04;;;;;;;3.00;0.60;;;;;;;27.92;28.91;97713.13;4748405;28;20529;-64
2022/05/28 08:38:30;;;;;;;1.33;0.50;;;;;;;28.00;27.36;97677.78;4749273;28;21109;-64
2022/05/28 08:40:59;;;;;;;1.15;0.40;;;;;;;28.27;29.01;97698.66;4754543;28;20043;-65
2022/05/28 08:43:30;;;;;;;2.50;0.70;;;;;;;28.71;29.33;97668.28;4752124;28;20038;-63
2022/05/28 08:45:56;;;;;;;2.80;0.70;;;;;;;28.73;27.06;97702.75;4747977;28;20600;-64
2022/05/28 08:48:45;;;;;;;1.40;0.40;;;;;;;29.23;26.09;97694.41;4753805;28;20159;-62
2022/05/28 08:51:29;;;;;;;1.40;0.40;;;;;;;28.80;26.14;97697.84;4757205;28;20245;-63
2022/05/28 08:54:06;;;;;;;2.13;0.57;;;;;;;29.20;26.07;97685.06;4832700;28;20034;-65
2022/05/28 08:56:31;;;;;;;3.05;0.60;;;;;;;29.45;26.19;97685.78;4813596;28;20035;-60
2022/05/28 08:59:10;;;;;;;2.78;0.80;;;;;;;29.73;25.38;97707.34;4773721;28;21713;-65
2022/05/28 09:01:37;;;;;;;;;;;;;;;29.53;24.86;97663.69;4843754;28;20711;-65
2022/05/28 09:04:12;;;;;;;2.45;0.75;;;;;;;29.66;25.85;97671.00;4829139;28;19918;-62
2022/05/28 09:06:45;;;;;;;1.88;0.60;;;;;;;30.00;25.37;97685.22;4754572;28;20050;-59
2022/05/28 09:09:12;;;;;;;1.75;0.55;;;;;;;29.51;25.77;97665.88;4824554;28;21047;-63
2022/05/28 09:12:01;;;;;;;1.75;0.50;;;;;;;29.94;26.49;97687.19;4841026;28;21270;-61
2022/05/28 09:14:33;;;;;;;2.50;0.50;;;;;;;30.31;26.13;97674.75;4841416;28;20082;-64
2022/05/28 09:17:24;;;;;;;2.08;0.60;;;;;;;30.10;26.11;97685.03;4755789;28;20035;-64
2022/05/28 09:19:51;;;;;;;1.48;0.50;;;;;;;29.94;27.51;97672.97;4839630;28;20408;-62
2022/05/28 09:22:17;;;;;;;1.67;0.60;;;;;;;29.93;27.40;97674.09;4840644;28;20031;-60
2022/05/28 09:24:43;;;;;;;1.45;0.50;;;;;;;29.74;26.13;97677.59;4767796;28;20045;-64
2022/05/28 09:27:19;;;;;;;1.38;0.50;;;;;;;29.75;27.13;97673.03;4839168;28;25441;-64
2022/05/28 09:29:54;;;;;;;0.85;0.40;;;;;;;30.07;26.64;97667.66;4849245;28;20230;-63
2022/05/28 09:32:28;;;;;;;1.50;0.50;;;;;;;29.98;27.28;97631.91;4758331;28;22168;-60
2022/05/28 09:35:12;;;;;;;2.22;0.68;;;;;;;30.38;28.65;97666.34;4844602;28;20466;-63
2022/05/28 09:38:01;;;;;;;2.75;0.52;;;;;;;29.95;30.40;97663.88;4826047;28;20742;-61
2022/05/28 09:40:41;;;;;;;1.48;0.52;;;;;;;29.90;26.72;97667.44;4767083;28;20042;-61
2022/05/28 09:43:32;;;;;;;1.70;0.50;;;;;;;30.08;27.01;97647.81;4781206;28;21929;-62
2022/05/28 09:46:03;;;;;;;1.88;0.60;;;;;;;30.22;28.88;97650.50;4812792;28;25947;-61
2022/05/28 09:48:29;;;;;;;1.33;0.45;;;;;;;29.40;30.40;97651.06;4834651;28;21579;-61
2022/05/28 09:50:55;;;;;;;1.58;0.50;;;;;;;29.33;30.74;97649.56;4800275;28;20034;-62
2022/05/28 09:56:23;;;;;;;1.13;0.30;;;;;;;28.41;26.65;97645.31;4816214;28;20773;-63
2022/05/28 09:58:48;;;;;;;1.70;0.43;;;;;;;28.35;25.73;97633.09;4832663;28;20858;-67
2022/05/28 10:01:18;;;;;;;2.42;0.38;;;;;;;28.16;28.19;97636.47;4792494;28;20039;-58
2022/05/28 10:04:45;;;;;;;1.15;0.30;;;;;;;27.99;28.79;97628.91;4788843;28;20315;-61
2022/05/28 10:06:48;;;;;;;1.60;0.50;;;;;;;27.83;30.99;97615.97;4819461;28;20046;-62
2022/05/28 10:09:25;;;;;;;1.10;0.40;;;;;;;28.02;28.24;97632.91;4854396;28;21732;-63
2022/05/28 10:12:01;;;;;;;2.85;0.57;;;;;;;27.77;24.57;97629.34;4730361;28;20133;-66
2022/05/28 10:14:30;;;;;;;1.50;0.50;;;;;;;27.76;28.36;97625.09;4745068;28;20038;-63
2022/05/28 10:17:03;;;;;;;2.53;0.65;;;;;;;27.79;28.47;97624.53;4746111;28;20567;-64
2022/05/28 10:19:41;;;;;;;2.38;0.60;;;;;;;27.75;26.56;97628.84;4737893;28;20109;-62
2022/05/28 10:22:15;;;;;;;1.75;0.52;;;;;;;27.83;27.58;97624.75;4743794;28;20584;-62
2022/05/28 10:24:50;;;;;;;2.97;0.70;;;;;;;27.90;28.10;97627.94;4810848;28;20027;-59
2022/05/28 10:27:23;;;;;;;2.03;0.47;;;;;;;27.88;25.66;97635.41;4779334;28;20930;-63
2022/05/28 10:29:49;;;;;;;1.38;0.50;;;;;;;28.04;25.17;97629.94;4820048;28;26966;-66
2022/05/28 10:32:28;;;;;;;1.17;0.40;;;;;;;28.05;25.77;97623.53;4822413;28;20024;-63
2022/05/28 10:35:03;;;;;;;2.25;0.40;;;;;;;28.01;23.22;97617.16;4799119;28;20035;-60
2022/05/28 10:37:29;;;;;;;1.98;0.52;;;;;;;28.08;26.53;97626.44;4750700;28;20442;-63
2022/05/28 10:40:03;;;;;;;1.13;0.45;;;;;;;28.04;25.92;97617.41;4820002;28;20113;-67
2022/05/28 10:42:29;;;;;;;0.93;0.30;;;;;;;28.04;25.66;97622.72;4817333;28;20097;-61
2022/05/28 10:44:56;;;;;;;2.50;0.55;;;;;;;27.91;28.46;97618.84;4744259;28;20727;-58
2022/05/28 10:47:32;;;;;;;1.20;0.50;;;;;;;27.98;24.72;97623.84;4812096;28;20041;-65
2022/05/28 10:50:00;;;;;;;3.90;1.30;;;;;;;27.92;24.76;97612.41;4819258;28;20533;-62
2022/05/28 10:52:44;;;;;;;6.20;3.90;;;;;;;27.73;25.49;97612.31;4814098;28;20037;-61
2022/05/28 10:55:12;;;;;;;8.63;4.85;;;;;;;27.73;26.13;97620.31;4765972;28;21272;-63
2022/05/28 10:58:12;;;;;;;13.80;9.37;;;;;;;27.73;24.22;97616.84;4780457;28;21521;-64
2022/05/28 11:00:58;;;;;;;9.60;5.88;;;;;;;27.69;24.89;97613.94;4776741;28;20277;-61
2022/05/28 11:03:33;;;;;;;20.92;17.60;;;;;;;27.80;24.59;97610.09;4835849;28;20668;-61
2022/05/28 11:06:14;;;;;;;15.93;12.05;;;;;;;27.69;24.80;97608.63;4833669;28;20125;-60
2022/05/28 11:09:05;;;;;;;10.07;6.55;;;;;;;27.83;23.88;97602.59;4774980;28;20897;-65
2022/05/28 11:11:44;;;;;;;4.38;1.77;;;;;;;27.89;21.10;97602.28;4809067;28;20486;-64
2022/05/28 11:14:21;;;;;;;7.63;3.92;;;;;;;27.76;21.98;97582.38;4833857;28;20027;-60
2022/05/28 11:17:14;;;;;;;4.10;1.15;;;;;;;27.89;25.37;97596.94;4750932;28;20440;-62
2022/05/28 11:19:46;;;;;;;3.70;1.40;;;;;;;27.81;21.86;97579.63;4815898;28;21572;-63
2022/05/28 11:22:48;;;;;;;2.65;0.80;;;;;;;27.89;23.03;97591.59;4842957;28;20125;-58
2022/05/28 11:25:25;;;;;;;6.80;1.45;;;;;;;27.95;23.09;97590.50;4754333;28;20639;-63
2022/05/28 11:28:26;;;;;;;4.97;1.90;;;;;;;27.77;22.49;97567.94;4834913;28;20089;-64
2022/05/28 11:30:54;;;;;;;5.95;2.95;;;;;;;27.88;24.16;97592.66;4825367;28;20039;-61
2022/05/28 11:33:36;;;;;;;4.10;1.73;;;;;;;27.82;25.82;97585.78;4747080;28;20031;-65
2022/05/28 11:36:20;;;;;;;3.90;1.40;;;;;;;27.83;24.63;97591.91;4809277;28;22497;-65
2022/05/28 11:38:57;;;;;;;3.72;1.80;;;;;;;27.91;26.08;97581.47;4809525;28;20046;-62
2022/05/28 11:41:34;;;;;;;1.85;0.57;;;;;;;27.96;23.39;97581.38;4744856;28;20390;-64
2022/05/28 11:44:13;;;;;;;1.65;0.50;;;;;;;27.63;23.77;97515.47;4718661;28;20039;-61
2022/05/28 11:47:11;;;;;;;0.90;0.45;;;;;;;27.97;23.67;97569.63;4724120;28;21498;-58
2022/05/28 11:52:56;;;;;;;1.77;0.47;;;;;;;27.92;25.18;97555.53;4866455;28;20041;-64
2022/05/28 11:55:23;;;;;;;1.52;0.40;;;;;;;28.00;26.94;97565.59;4782141;28;21001;-64
2022/05/28 11:58:03;;;;;;;1.55;0.50;;;;;;;28.05;24.07;97554.84;4853791;28;21470;-64